Eagle San Antonio — 9V9330 — position and weather

sailwx.info

Track history (hours):
 
Tides and Currents Weather Stations Pressure Air Temp Water Temp Dewpoint Dewpoint Depression Visibility Wind Speed Wind Dir Waves Ship Positions

Eagle San Antonio

Last reported at 2016-May-12 03:12 UTC. Time now 2016-May-31 02:06 UTC.
Position N 27°46' W 016°33'.
Warning: this ship's position is 18 days out of date.

Length 274 m; draft 9.3 m.

Type: Ship. MMSI: 566453000.

Date/timePositionNaut miles runAvg speedWind from/ knotsBaromVisibWave heightAir tempDewpointWater temp
2016-May-12 03:12N 27°46' W 016°33'3913.5
2016-May-12 00:20N 28°16' W 016°06'1013.2
2016-May-11 23:33N 28°24' W 015°58'1313.2
2016-May-11 22:33N 28°34' W 015°49'1312.9
2016-May-11 21:33N 28°44' W 015°39'1312.7
2016-May-11 20:33N 28°54' W 015°30'1413.4
2016-May-11 19:31N 29°06' W 015°22'1313.5
2016-May-11 18:32N 29°18' W 015°16'1413.2
2016-May-11 17:28N 29°31' W 015°08'57212.9
2016-May-09 21:09N 37°59' W 009°52'812.7
2016-May-09 20:31N 38°06' W 009°47'1212.8
2016-May-09 19:33N 38°17' W 009°40'1312.7
2016-May-09 18:30N 38°29' W 009°33'1212.5
2016-May-09 17:32N 38°40' W 009°25'1 0.8
2016-May-09 16:33N 38°40' W 009°27'3 3.0
2016-May-09 15:33N 38°39' W 009°30'1413.6
2016-May-09 14:31N 38°36' W 009°48'1313.7
2016-May-09 13:33N 38°34' W 010°05'1212.1
2016-May-09 12:33N 38°45' W 010°12'62613.6
2016-May-07 14:33N 48°43' W 005°57'1312.3
2016-May-07 13:32N 48°54' W 005°48'7614.1
2016-May-07 08:08N 49°34' W 004°08'813.1
2016-May-07 07:33N 49°38' W 003°58'1212.3
2016-May-07 06:33N 49°44' W 003°41'1211.7
2016-May-07 05:33N 49°49' W 003°25'1212.1
2016-May-07 04:33N 49°54' W 003°08'1413.6
2016-May-07 03:34N 49°59' W 002°48'1615.8
2016-May-07 02:34N 50°03' W 002°24'1817.7
2016-May-07 01:33N 50°08' W 001°58'3416.9
2016-May-06 23:33N 50°18' W 001°07'1413.7
2016-May-06 22:33N 50°22' W 000°47'1211.9
2016-May-06 21:34N 50°25' W 000°29'1111.3
2016-May-06 20:33N 50°28' W 000°12'1111.4
2016-May-06 19:34N 50°31' E 000°05'1312.3
2016-May-06 18:33N 50°35' E 000°24'2814.3
2016-May-06 16:33N 50°48' E 001°04'1414.4
2016-May-06 15:34N 50°57' E 001°21'1312.8
2016-May-06 14:33N 51°07' E 001°35'1111.2
2016-May-06 13:33N 51°15' E 001°47'1110.6
2016-May-06 12:34N 51°24' E 001°55'1111.4
2016-May-06 11:34N 51°33' E 002°06'1212.2
2016-May-06 10:33N 51°42' E 002°19'1613.5
2016-May-06 09:24N 51°55' E 002°35'2714.5
2016-May-06 07:33N 52°21' E 002°45'1714.4
2016-May-06 06:21N 52°36' E 002°59'2412.9
2016-May-06 04:27N 52°58' E 003°16'1011.0
2016-May-06 03:33N 53°07' E 003°21'6211.9
2016-May-05 22:21N 53°59' E 004°18'1412.8
2016-May-05 21:17N 54°03' E 004°40'912.8
2016-May-05 20:33N 54°05' E 004°56'1212.3
2016-May-05 19:33N 54°06' E 005°17'1212.0
2016-May-05 18:33N 54°08' E 005°37'1212.0
2016-May-05 17:33N 54°10' E 005°57'1212.3
2016-May-05 16:33N 54°12' E 006°18'1313.2
2016-May-05 15:33N 54°12' E 006°41'1413.9
2016-May-05 14:33N 54°12' E 007°04'1414.2
2016-May-05 13:33N 54°11' E 007°29'1514.7
2016-May-05 12:33N 53°58' E 007°40'1514.6
2016-May-05 11:33N 53°48' E 007°58'1312.6
2016-May-05 10:33N 53°37' E 008°09'4 4.0
2016-May-05 09:33N 53°33' E 008°10'0 0.0
2016-May-05 08:33N 53°33' E 008°10'0 0.0
2016-May-05 07:33N 53°33' E 008°10'0 0.0
2016-May-05 06:33N 53°33' E 008°10'0 0.0
2016-May-05 05:33N 53°33' E 008°10'0 0.0
2016-May-05 04:33N 53°33' E 008°10'0 0.0
2016-May-05 03:30N 53°33' E 008°10'0 0.0
2016-May-05 02:24N 53°33' E 008°10'0 0.0
2016-May-05 00:27N 53°33' E 008°10'0 0.0
2016-May-04 23:33N 53°33' E 008°10'0 0.0
2016-May-04 22:27N 53°33' E 008°10'0 0.0
2016-May-04 21:24N 53°33' E 008°10'0 0.0
2016-May-04 20:23N 53°33' E 008°10'0 0.0
2016-May-04 19:24N 53°33' E 008°10'0 0.0
2016-May-04 14:06N 53°33' E 008°10'0 0.0
2016-May-04 13:30N 53°33' E 008°10'0 0.0
2016-May-04 12:24N 53°33' E 008°10'0 0.0
2016-May-04 09:28N 53°33' E 008°10'0 0.0
2016-May-04 08:31N 53°33' E 008°10'0 0.0
2016-May-04 07:25N 53°33' E 008°10'0 0.0
2016-May-04 06:19N 53°33' E 008°10'0 0.0
2016-May-03 23:25N 53°33' E 008°10'0 0.0
2016-May-03 22:31N 53°33' E 008°10'0 0.0
2016-May-03 21:29N 53°33' E 008°10'1 1.4
2016-May-03 20:33N 53°35' E 008°10'7 6.9
2016-May-03 19:33N 53°41' E 008°05'1110.9
2016-May-03 18:34N 53°50' E 007°54'1010.4
2016-May-03 17:33N 53°56' E 007°40'1312.5
2016-May-03 16:34N 54°07' E 007°29'1212.2
2016-May-03 15:33N 54°09' E 007°08'1312.7
2016-May-03 14:32N 54°08' E 006°46'1212.2
2016-May-03 13:32N 54°08' E 006°25'1211.9
2016-May-03 12:33N 54°07' E 006°05'1211.7
2016-May-03 11:29N 54°05' E 005°44'1111.7
2016-May-03 10:33N 54°04' E 005°26'1311.7
2016-May-03 09:24N 54°02' E 005°03'18211.9
2016-May-02 18:08N 51°31' E 002°14'711.6
2016-May-02 17:34N 51°25' E 002°08'1111.2
2016-May-02 16:34N 51°14' E 002°04'1110.8
2016-May-02 15:34N 51°08' E 001°50'1010.4
2016-May-02 14:33N 51°01' E 001°37'1110.8
2016-May-02 13:33N 50°52' E 001°28'1211.4
2016-May-02 12:31N 50°42' E 001°20'3911.5
2016-May-02 09:10N 50°25' E 000°26'711.8
2016-May-02 08:34N 50°23' E 000°15'1212.1
2016-May-02 07:34N 50°20' W 000°04'1212.4
2016-May-02 06:34N 50°17' W 000°23'  
Track history (hours):
 
Tides and Currents Weather Stations Pressure Air Temp Water Temp Dewpoint Dewpoint Depression Visibility Wind Speed Wind Dir Waves Ship Positions

Eagle San Antonio

Last reported at 2016-May-12 03:12 UTC. Time now 2016-May-31 02:06 UTC.
Position N 27°46' W 016°33'.
Warning: this ship's position is 18 days out of date.

Length 274 m; draft 9.3 m.

Type: Ship. MMSI: 566453000.

Date/timePositionNaut miles runAvg speedWind from/ knotsBaromVisibWave heightAir tempDewpointWater temp
2016-May-12 03:12N 27°46' W 016°33'3913.5
2016-May-12 00:20N 28°16' W 016°06'1013.2
2016-May-11 23:33N 28°24' W 015°58'1313.2
2016-May-11 22:33N 28°34' W 015°49'1312.9
2016-May-11 21:33N 28°44' W 015°39'1312.7
2016-May-11 20:33N 28°54' W 015°30'1413.4
2016-May-11 19:31N 29°06' W 015°22'1313.5
2016-May-11 18:32N 29°18' W 015°16'1413.2
2016-May-11 17:28N 29°31' W 015°08'57212.9
2016-May-09 21:09N 37°59' W 009°52'812.7
2016-May-09 20:31N 38°06' W 009°47'1212.8
2016-May-09 19:33N 38°17' W 009°40'1312.7
2016-May-09 18:30N 38°29' W 009°33'1212.5
2016-May-09 17:32N 38°40' W 009°25'1 0.8
2016-May-09 16:33N 38°40' W 009°27'3 3.0
2016-May-09 15:33N 38°39' W 009°30'1413.6
2016-May-09 14:31N 38°36' W 009°48'1313.7
2016-May-09 13:33N 38°34' W 010°05'1212.1
2016-May-09 12:33N 38°45' W 010°12'62613.6
2016-May-07 14:33N 48°43' W 005°57'1312.3
2016-May-07 13:32N 48°54' W 005°48'7614.1
2016-May-07 08:08N 49°34' W 004°08'813.1
2016-May-07 07:33N 49°38' W 003°58'1212.3
2016-May-07 06:33N 49°44' W 003°41'1211.7
2016-May-07 05:33N 49°49' W 003°25'1212.1
2016-May-07 04:33N 49°54' W 003°08'1413.6
2016-May-07 03:34N 49°59' W 002°48'1615.8
2016-May-07 02:34N 50°03' W 002°24'1817.7
2016-May-07 01:33N 50°08' W 001°58'3416.9
2016-May-06 23:33N 50°18' W 001°07'1413.7
2016-May-06 22:33N 50°22' W 000°47'1211.9
2016-May-06 21:34N 50°25' W 000°29'1111.3
2016-May-06 20:33N 50°28' W 000°12'1111.4
2016-May-06 19:34N 50°31' E 000°05'1312.3
2016-May-06 18:33N 50°35' E 000°24'2814.3
2016-May-06 16:33N 50°48' E 001°04'1414.4
2016-May-06 15:34N 50°57' E 001°21'1312.8
2016-May-06 14:33N 51°07' E 001°35'1111.2
2016-May-06 13:33N 51°15' E 001°47'1110.6
2016-May-06 12:34N 51°24' E 001°55'1111.4
2016-May-06 11:34N 51°33' E 002°06'1212.2
2016-May-06 10:33N 51°42' E 002°19'1613.5
2016-May-06 09:24N 51°55' E 002°35'2714.5
2016-May-06 07:33N 52°21' E 002°45'1714.4
2016-May-06 06:21N 52°36' E 002°59'2412.9
2016-May-06 04:27N 52°58' E 003°16'1011.0
2016-May-06 03:33N 53°07' E 003°21'6211.9
2016-May-05 22:21N 53°59' E 004°18'1412.8
2016-May-05 21:17N 54°03' E 004°40'912.8
2016-May-05 20:33N 54°05' E 004°56'1212.3
2016-May-05 19:33N 54°06' E 005°17'1212.0
2016-May-05 18:33N 54°08' E 005°37'1212.0
2016-May-05 17:33N 54°10' E 005°57'1212.3
2016-May-05 16:33N 54°12' E 006°18'1313.2
2016-May-05 15:33N 54°12' E 006°41'1413.9
2016-May-05 14:33N 54°12' E 007°04'1414.2
2016-May-05 13:33N 54°11' E 007°29'1514.7
2016-May-05 12:33N 53°58' E 007°40'1514.6
2016-May-05 11:33N 53°48' E 007°58'1312.6
2016-May-05 10:33N 53°37' E 008°09'4 4.0
2016-May-05 09:33N 53°33' E 008°10'0 0.0
2016-May-05 08:33N 53°33' E 008°10'0 0.0
2016-May-05 07:33N 53°33' E 008°10'0 0.0
2016-May-05 06:33N 53°33' E 008°10'0 0.0
2016-May-05 05:33N 53°33' E 008°10'0 0.0
2016-May-05 04:33N 53°33' E 008°10'0 0.0
2016-May-05 03:30N 53°33' E 008°10'0 0.0
2016-May-05 02:24N 53°33' E 008°10'0 0.0
2016-May-05 00:27N 53°33' E 008°10'0 0.0
2016-May-04 23:33N 53°33' E 008°10'0 0.0
2016-May-04 22:27N 53°33' E 008°10'0 0.0
2016-May-04 21:24N 53°33' E 008°10'0 0.0
2016-May-04 20:23N 53°33' E 008°10'0 0.0
2016-May-04 19:24N 53°33' E 008°10'0 0.0
2016-May-04 14:06N 53°33' E 008°10'0 0.0
2016-May-04 13:30N 53°33' E 008°10'0 0.0
2016-May-04 12:24N 53°33' E 008°10'0 0.0
2016-May-04 09:28N 53°33' E 008°10'0 0.0
2016-May-04 08:31N 53°33' E 008°10'0 0.0
2016-May-04 07:25N 53°33' E 008°10'0 0.0
2016-May-04 06:19N 53°33' E 008°10'0 0.0
2016-May-03 23:25N 53°33' E 008°10'0 0.0
2016-May-03 22:31N 53°33' E 008°10'0 0.0
2016-May-03 21:29N 53°33' E 008°10'1 1.4
2016-May-03 20:33N 53°35' E 008°10'7 6.9
2016-May-03 19:33N 53°41' E 008°05'1110.9
2016-May-03 18:34N 53°50' E 007°54'1010.4
2016-May-03 17:33N 53°56' E 007°40'1312.5
2016-May-03 16:34N 54°07' E 007°29'1212.2
2016-May-03 15:33N 54°09' E 007°08'1312.7
2016-May-03 14:32N 54°08' E 006°46'1212.2
2016-May-03 13:32N 54°08' E 006°25'1211.9
2016-May-03 12:33N 54°07' E 006°05'1211.7
2016-May-03 11:29N 54°05' E 005°44'1111.7
2016-May-03 10:33N 54°04' E 005°26'1311.7
2016-May-03 09:24N 54°02' E 005°03'18211.9
2016-May-02 18:08N 51°31' E 002°14'711.6
2016-May-02 17:34N 51°25' E 002°08'1111.2
2016-May-02 16:34N 51°14' E 002°04'1110.8
2016-May-02 15:34N 51°08' E 001°50'1010.4
2016-May-02 14:33N 51°01' E 001°37'1110.8
2016-May-02 13:33N 50°52' E 001°28'1211.4
2016-May-02 12:31N 50°42' E 001°20'3911.5
2016-May-02 09:10N 50°25' E 000°26'711.8
2016-May-02 08:34N 50°23' E 000°15'1212.1
2016-May-02 07:34N 50°20' W 000°04'1212.4
2016-May-02 06:34N 50°17' W 000°23'  

Dump ship's entire track history